Time;durP1;ratioP1;P1;durP2;ratioP2;P2;SDS_P1;SDS_P2;PMS_P1;PMS_P2;Temp;Humidity;BMP_temperature;BMP_pressure;BME280_temperature;BME280_humidity;BME280_pressure;Samples;Min_cycle;Max_cycle;Signal;HPM_P1;HPM_P2
2023/06/26 00:00:32;;;;;;;0.20;0.20;;;;;;;;;;5052207;28;20045;-85
2023/06/26 00:02:58;;;;;;;2.13;0.45;;;;;;;;;;5051881;28;20035;-84
2023/06/26 00:05:24;;;;;;;0.20;0.20;;;;;;;;;;5052137;28;20032;-84
2023/06/26 00:07:50;;;;;;;0.35;0.35;;;;;;;;;;5052526;28;20026;-84
2023/06/26 00:10:16;;;;;;;1.02;0.93;;;;;;;;;;5051998;28;20394;-84
2023/06/26 00:12:42;;;;;;;0.40;0.40;;;;;;;;;;5051331;28;20037;-84
2023/06/26 00:15:08;;;;;;;0.10;0.10;;;;;;;;;;5052312;28;20029;-85
2023/06/26 00:17:37;;;;;;;0.50;0.50;;;;;;;;;;5051797;28;20033;-84
2023/06/26 00:20:05;;;;;;;0.80;0.73;;;;;;;;;;5051940;27;20025;-85
2023/06/26 00:22:31;;;;;;;0.32;0.32;;;;;;;;;;5051693;28;20025;-84
2023/06/26 00:24:57;;;;;;;1.27;0.65;;;;;;;;;;5051946;28;20032;-84
2023/06/26 00:27:23;;;;;;;4.47;0.43;;;;;;;;;;5051464;28;20049;-84
2023/06/26 00:29:49;;;;;;;0.50;0.50;;;;;;;;;;5051791;28;20027;-85
2023/06/26 00:32:15;;;;;;;3.33;1.40;;;;;;;;;;5051939;28;20546;-84
2023/06/26 00:34:41;;;;;;;0.30;0.30;;;;;;;;;;5051811;28;20056;-84
2023/06/26 00:37:07;;;;;;;1.42;0.70;;;;;;;;;;5051671;28;20117;-84
2023/06/26 00:39:33;;;;;;;0.50;0.50;;;;;;;;;;5051914;28;20486;-84
2023/06/26 00:41:59;;;;;;;1.05;0.60;;;;;;;;;;5051594;28;20471;-84
2023/06/26 00:44:25;;;;;;;0.95;0.95;;;;;;;;;;5050384;28;20025;-84
2023/06/26 00:46:51;;;;;;;0.43;0.40;;;;;;;;;;5051438;27;20028;-84
2023/06/26 00:49:17;;;;;;;0.65;0.65;;;;;;;;;;5051960;28;20398;-84
2023/06/26 00:51:44;;;;;;;1.20;0.90;;;;;;;;;;5051448;28;20039;-84
2023/06/26 00:54:10;;;;;;;1.55;0.77;;;;;;;;;;5051395;28;20096;-84
2023/06/26 00:56:36;;;;;;;0.45;0.45;;;;;;;;;;5050992;28;20089;-84
2023/06/26 00:59:02;;;;;;;0.43;0.40;;;;;;;;;;5051241;28;20402;-84
2023/06/26 01:01:28;;;;;;;0.30;0.30;;;;;;;;;;5050453;28;20025;-84
2023/06/26 01:03:56;;;;;;;0.70;0.70;;;;;;;;;;5051633;28;20025;-84
2023/06/26 01:06:23;;;;;;;0.43;0.35;;;;;;;;;;5051222;28;20044;-84
2023/06/26 01:08:49;;;;;;;0.55;0.40;;;;;;;;;;5051114;28;20021;-84
2023/06/26 01:11:15;;;;;;;0.63;0.63;;;;;;;;;;5050752;28;20032;-84
2023/06/26 01:13:43;;;;;;;0.38;0.38;;;;;;;;;;5051540;28;20096;-84
2023/06/26 01:16:10;;;;;;;0.40;0.40;;;;;;;;;;5050967;28;20029;-84
2023/06/26 01:18:36;;;;;;;0.90;0.35;;;;;;;;;;5050891;28;20516;-84
2023/06/26 01:21:03;;;;;;;0.70;0.52;;;;;;;;;;5050930;28;20394;-85
2023/06/26 01:23:29;;;;;;;0.10;0.10;;;;;;;;;;5051025;28;20025;-84
2023/06/26 01:25:55;;;;;;;0.50;0.30;;;;;;;;;;5051030;28;20029;-83
2023/06/26 01:28:22;;;;;;;0.47;0.47;;;;;;;;;;5050834;28;20040;-84
2023/06/26 01:30:48;;;;;;;0.35;0.32;;;;;;;;;;5050941;27;20021;-85
2023/06/26 01:33:15;;;;;;;0.63;0.63;;;;;;;;;;5051252;27;20040;-84
2023/06/26 01:35:41;;;;;;;1.10;0.98;;;;;;;;;;5050733;28;20540;-84
2023/06/26 01:38:14;;;;;;;0.30;0.30;;;;;;;;;;5050796;28;20028;-84
2023/06/26 01:40:40;;;;;;;0.40;0.40;;;;;;;;;;5050573;28;20466;-84
2023/06/26 01:43:07;;;;;;;0.55;0.55;;;;;;;;;;5050614;28;20053;-84
2023/06/26 01:45:33;;;;;;;0.10;0.10;;;;;;;;;;5050604;28;20376;-83
2023/06/26 01:48:00;;;;;;;0.45;0.28;;;;;;;;;;5050542;27;20021;-84
2023/06/26 01:50:28;;;;;;;0.30;0.30;;;;;;;;;;5050904;28;20037;-84
2023/06/26 01:53:14;;;;;;;0.38;0.30;;;;;;;;;;5049950;28;20025;-84
2023/06/26 01:55:47;;;;;;;0.43;0.43;;;;;;;;;;5049174;28;20501;-84
2023/06/26 01:58:14;;;;;;;6.60;0.77;;;;;;;;;;5050287;28;20402;-84
2023/06/26 02:00:40;;;;;;;0.20;0.20;;;;;;;;;;5050281;28;20025;-84
2023/06/26 02:03:06;;;;;;;0.43;0.43;;;;;;;;;;5050363;28;20029;-84
2023/06/26 02:05:32;;;;;;;0.20;0.20;;;;;;;;;;5050624;28;20029;-84
2023/06/26 02:08:01;;;;;;;0.22;0.22;;;;;;;;;;5050046;28;20090;-84
2023/06/26 02:10:27;;;;;;;0.68;0.68;;;;;;;;;;5050307;28;20022;-84
2023/06/26 02:12:53;;;;;;;0.30;0.30;;;;;;;;;;5049970;28;20376;-84
2023/06/26 02:15:19;;;;;;;0.30;0.30;;;;;;;;;;5050155;28;20033;-84
2023/06/26 02:17:47;;;;;;;0.30;0.30;;;;;;;;;;5049930;28;20044;-83
2023/06/26 02:20:14;;;;;;;0.32;0.30;;;;;;;;;;5050254;28;20021;-84
2023/06/26 02:22:39;;;;;;;1.17;0.50;;;;;;;;;;5049859;28;20406;-84
2023/06/26 02:25:06;;;;;;;1.88;0.63;;;;;;;;;;5050037;28;20021;-84
2023/06/26 02:27:32;;;;;;;0.40;0.35;;;;;;;;;;5049820;28;20090;-84
2023/06/26 02:29:58;;;;;;;0.30;0.30;;;;;;;;;;5050069;28;20053;-84
2023/06/26 02:32:24;;;;;;;0.28;0.28;;;;;;;;;;5048700;28;20029;-85
2023/06/26 02:34:51;;;;;;;1.10;0.35;;;;;;;;;;5050219;27;20048;-84
2023/06/26 02:37:17;;;;;;;0.30;0.20;;;;;;;;;;5049451;28;20036;-84
2023/06/26 02:39:43;;;;;;;0.55;0.55;;;;;;;;;;5049847;28;20033;-85
2023/06/26 02:42:09;;;;;;;0.10;0.10;;;;;;;;;;5050140;28;20467;-84
2023/06/26 02:44:35;;;;;;;0.25;0.25;;;;;;;;;;5049821;28;20088;-85
2023/06/26 02:47:01;;;;;;;0.13;0.13;;;;;;;;;;5049652;27;20040;-84
2023/06/26 02:49:27;;;;;;;0.28;0.28;;;;;;;;;;5049588;28;20352;-84
2023/06/26 02:51:53;;;;;;;0.30;0.30;;;;;;;;;;5049190;28;20025;-84
2023/06/26 02:54:19;;;;;;;0.28;0.28;;;;;;;;;;5049838;28;20025;-84
2023/06/26 02:56:45;;;;;;;0.40;0.40;;;;;;;;;;5049462;28;20352;-84
2023/06/26 02:59:11;;;;;;;0.95;0.57;;;;;;;;;;5049431;28;20037;-84
2023/06/26 03:01:37;;;;;;;0.63;0.63;;;;;;;;;;5049803;28;20100;-83
2023/06/26 03:04:04;;;;;;;1.33;0.47;;;;;;;;;;5049489;28;20485;-84
2023/06/26 03:06:30;;;;;;;0.32;0.32;;;;;;;;;;5048978;28;20046;-84
2023/06/26 03:08:56;;;;;;;0.22;0.22;;;;;;;;;;5049350;28;20028;-84
2023/06/26 03:11:22;;;;;;;0.40;0.40;;;;;;;;;;5049702;28;20081;-84
2023/06/26 03:13:48;;;;;;;0.20;0.20;;;;;;;;;;5049390;28;20029;-84
2023/06/26 03:16:14;;;;;;;1.00;0.52;;;;;;;;;;5049120;28;20021;-84
2023/06/26 03:18:40;;;;;;;0.17;0.17;;;;;;;;;;5049171;28;20045;-84
2023/06/26 03:21:06;;;;;;;1.00;0.68;;;;;;;;;;5048747;28;20013;-84
2023/06/26 03:23:32;;;;;;;1.17;0.60;;;;;;;;;;5049139;28;20394;-84
2023/06/26 03:25:58;;;;;;;0.43;0.43;;;;;;;;;;5048316;28;20538;-83
2023/06/26 03:28:24;;;;;;;1.77;0.40;;;;;;;;;;5049510;28;20057;-84
2023/06/26 03:30:50;;;;;;;0.25;0.25;;;;;;;;;;5048843;28;20491;-84
2023/06/26 03:33:16;;;;;;;0.47;0.47;;;;;;;;;;5049382;28;20053;-84
2023/06/26 03:35:42;;;;;;;0.65;0.35;;;;;;;;;;5048733;28;20495;-84
2023/06/26 03:38:08;;;;;;;0.20;0.20;;;;;;;;;;5049009;28;20043;-84
2023/06/26 03:40:34;;;;;;;1.92;0.57;;;;;;;;;;5049151;28;20055;-84
2023/06/26 03:43:00;;;;;;;0.52;0.50;;;;;;;;;;5049030;28;20025;-84
2023/06/26 03:45:26;;;;;;;0.40;0.40;;;;;;;;;;5048941;28;20464;-84
2023/06/26 03:47:52;;;;;;;0.55;0.35;;;;;;;;;;5048715;27;20562;-84
2023/06/26 03:50:18;;;;;;;1.30;0.80;;;;;;;;;;5048540;28;20029;-84
2023/06/26 03:52:44;;;;;;;0.35;0.35;;;;;;;;;;5048645;28;20029;-83
2023/06/26 03:55:10;;;;;;;0.30;0.30;;;;;;;;;;5048608;28;20109;-84
2023/06/26 03:57:36;;;;;;;0.28;0.28;;;;;;;;;;5048673;28;20040;-84
2023/06/26 04:00:08;;;;;;;0.30;0.30;;;;;;;;;;5048606;28;20118;-84
2023/06/26 04:02:34;;;;;;;0.32;0.32;;;;;;;;;;5048697;28;20025;-84
2023/06/26 04:05:00;;;;;;;0.20;0.20;;;;;;;;;;5048452;28;20032;-84
2023/06/26 04:07:26;;;;;;;0.20;0.20;;;;;;;;;;5048677;28;20040;-84
2023/06/26 04:09:52;;;;;;;0.77;0.32;;;;;;;;;;5048442;28;20029;-84
2023/06/26 04:12:18;;;;;;;0.98;0.55;;;;;;;;;;5048421;28;20025;-83
2023/06/26 04:14:44;;;;;;;0.80;0.73;;;;;;;;;;5048446;28;20104;-84
2023/06/26 04:17:10;;;;;;;0.60;0.60;;;;;;;;;;5048735;28;20162;-83
2023/06/26 04:19:36;;;;;;;0.30;0.30;;;;;;;;;;5048169;28;20037;-84
2023/06/26 04:22:02;;;;;;;0.20;0.20;;;;;;;;;;5048278;28;20028;-85
2023/06/26 04:24:28;;;;;;;1.10;0.90;;;;;;;;;;5048274;28;20126;-84
2023/06/26 04:26:56;;;;;;;0.40;0.40;;;;;;;;;;5048225;28;20080;-84
2023/06/26 04:29:25;;;;;;;0.68;0.55;;;;;;;;;;5048736;28;20539;-84
2023/06/26 04:31:51;;;;;;;0.10;0.10;;;;;;;;;;5048327;28;20085;-84
2023/06/26 04:34:17;;;;;;;0.30;0.30;;;;;;;;;;5048018;28;20117;-84
2023/06/26 04:36:47;;;;;;;0.20;0.20;;;;;;;;;;5048836;28;20096;-84
2023/06/26 04:39:17;;;;;;;0.30;0.30;;;;;;;;;;5051614;28;20044;-84
2023/06/26 04:41:43;;;;;;;0.35;0.30;;;;;;;;;;5051731;28;20021;-84
2023/06/26 04:44:09;;;;;;;0.20;0.20;;;;;;;;;;5052164;28;20101;-84
2023/06/26 04:46:35;;;;;;;0.93;0.40;;;;;;;;;;5051562;27;20025;-84
2023/06/26 04:49:03;;;;;;;0.55;0.55;;;;;;;;;;5051053;28;20081;-84
2023/06/26 04:51:29;;;;;;;0.30;0.30;;;;;;;;;;5051570;28;20028;-84
2023/06/26 04:53:55;;;;;;;0.15;0.15;;;;;;;;;;5051211;28;20025;-84
2023/06/26 04:56:21;;;;;;;0.60;0.60;;;;;;;;;;5051717;28;20048;-84
2023/06/26 04:58:47;;;;;;;0.52;0.52;;;;;;;;;;5051310;28;20033;-84
2023/06/26 05:01:13;;;;;;;0.60;0.60;;;;;;;;;;5051324;28;20503;-84
2023/06/26 05:03:39;;;;;;;1.65;0.82;;;;;;;;;;5051375;28;20394;-84
2023/06/26 05:06:05;;;;;;;0.55;0.47;;;;;;;;;;5051315;28;20029;-84
2023/06/26 05:08:31;;;;;;;0.25;0.25;;;;;;;;;;5051102;28;20029;-84
2023/06/26 05:10:58;;;;;;;0.10;0.10;;;;;;;;;;5051147;28;20029;-84
2023/06/26 05:13:24;;;;;;;0.38;0.38;;;;;;;;;;5051161;28;20039;-84
2023/06/26 05:15:51;;;;;;;0.50;0.50;;;;;;;;;;5051015;28;20036;-84
2023/06/26 05:18:17;;;;;;;0.20;0.20;;;;;;;;;;5051313;28;20093;-84
2023/06/26 05:20:43;;;;;;;0.47;0.47;;;;;;;;;;5050893;28;20053;-87
2023/06/26 05:23:11;;;;;;;0.20;0.20;;;;;;;;;;5050745;28;20029;-86
2023/06/26 05:25:37;;;;;;;0.40;0.30;;;;;;;;;;5050967;27;20371;-86
2023/06/26 05:28:09;;;;;;;0.75;0.52;;;;;;;;;;5051289;28;20048;-86
2023/06/26 05:30:36;;;;;;;0.30;0.30;;;;;;;;;;5050508;28;20021;-86
2023/06/26 05:33:02;;;;;;;0.20;0.20;;;;;;;;;;5050815;28;20117;-86
2023/06/26 05:35:31;;;;;;;0.30;0.30;;;;;;;;;;5049578;28;20120;-85
2023/06/26 05:37:58;;;;;;;0.08;0.08;;;;;;;;;;5050905;28;20440;-84
2023/06/26 05:40:24;;;;;;;0.80;0.30;;;;;;;;;;5050705;28;20478;-85
2023/06/26 05:42:50;;;;;;;0.70;0.32;;;;;;;;;;5048935;28;20104;-84
2023/06/26 05:45:17;;;;;;;0.52;0.35;;;;;;;;;;5049409;28;20487;-88
2023/06/26 05:47:43;;;;;;;0.40;0.40;;;;;;;;;;5050440;27;20565;-87
2023/06/26 05:50:09;;;;;;;1.33;0.60;;;;;;;;;;5050077;28;20049;-87
2023/06/26 05:52:35;;;;;;;0.13;0.13;;;;;;;;;;5051220;28;20025;-93
2023/06/26 05:55:02;;;;;;;0.40;0.40;;;;;;;;;;5051021;28;20077;-89
2023/06/26 05:57:29;;;;;;;0.20;0.20;;;;;;;;;;5051288;28;20025;-92
2023/06/26 05:59:55;;;;;;;0.15;0.15;;;;;;;;;;5051118;28;20035;-86
2023/06/26 06:02:21;;;;;;;0.32;0.30;;;;;;;;;;5050408;28;20044;-90
2023/06/26 06:04:47;;;;;;;0.20;0.20;;;;;;;;;;5050932;28;20379;-88
2023/06/26 06:07:13;;;;;;;0.05;0.05;;;;;;;;;;5050428;28;20029;-87
2023/06/26 06:09:39;;;;;;;0.10;0.10;;;;;;;;;;5050150;28;20090;-88
2023/06/26 06:12:06;;;;;;;0.73;0.40;;;;;;;;;;5049077;28;20100;-90
2023/06/26 06:14:32;;;;;;;0.13;0.13;;;;;;;;;;5050072;28;20025;-90
2023/06/26 06:16:58;;;;;;;0.10;0.10;;;;;;;;;;5049238;28;20061;-91
2023/06/26 06:19:24;;;;;;;0.43;0.43;;;;;;;;;;5051022;28;20067;-87
2023/06/26 06:21:50;;;;;;;0.10;0.10;;;;;;;;;;5049988;28;20431;-89
2023/06/26 06:24:16;;;;;;;0.03;0.03;;;;;;;;;;5049988;28;20478;-93
2023/06/26 06:26:43;;;;;;;0.30;0.22;;;;;;;;;;5047905;28;20441;-88
2023/06/26 06:29:08;;;;;;;0.43;0.43;;;;;;;;;;5049781;28;20037;-88
2023/06/26 06:31:34;;;;;;;0.20;0.20;;;;;;;;;;5049784;28;20021;-89
2023/06/26 06:34:00;;;;;;;0.20;0.20;;;;;;;;;;5049411;28;20033;-87
2023/06/26 06:36:26;;;;;;;2.38;1.40;;;;;;;;;;5049759;28;20263;-87
2023/06/26 06:38:52;;;;;;;1.40;0.40;;;;;;;;;;5049953;28;20542;-89
2023/06/26 06:41:20;;;;;;;0.20;0.20;;;;;;;;;;5050346;28;20024;-90
2023/06/26 06:43:46;;;;;;;1.85;0.75;;;;;;;;;;5049702;28;20037;-89
2023/06/26 06:46:12;;;;;;;0.50;0.50;;;;;;;;;;5050119;27;20021;-88
2023/06/26 06:48:37;;;;;;;0.55;0.55;;;;;;;;;;5048865;28;20029;-89
2023/06/26 06:51:03;;;;;;;0.57;0.57;;;;;;;;;;5048468;28;20025;-89
2023/06/26 06:53:30;;;;;;;0.40;0.40;;;;;;;;;;5048819;28;20029;-90
2023/06/26 06:55:56;;;;;;;0.50;0.40;;;;;;;;;;5049816;28;20024;-90
2023/06/26 06:58:25;;;;;;;0.40;0.40;;;;;;;;;;5048072;28;20044;-89
2023/06/26 07:00:51;;;;;;;1.30;1.20;;;;;;;;;;5048905;28;20059;-89
2023/06/26 07:03:18;;;;;;;0.17;0.17;;;;;;;;;;5049942;28;20030;-89
2023/06/26 07:05:44;;;;;;;3.65;1.10;;;;;;;;;;5049213;28;20067;-89
2023/06/26 07:08:10;;;;;;;0.47;0.35;;;;;;;;;;5048731;28;20029;-89
2023/06/26 07:10:36;;;;;;;0.60;0.60;;;;;;;;;;5048458;28;20086;-91
2023/06/26 07:13:02;;;;;;;0.68;0.55;;;;;;;;;;5049242;28;20025;-89
2023/06/26 07:15:28;;;;;;;0.35;0.35;;;;;;;;;;5049821;28;20112;-89
2023/06/26 07:17:54;;;;;;;0.28;0.20;;;;;;;;;;5049225;28;20088;-90
2023/06/26 07:20:20;;;;;;;0.30;0.30;;;;;;;;;;5049968;28;20130;-90
2023/06/26 07:22:46;;;;;;;0.50;0.50;;;;;;;;;;5049604;28;20025;-89
2023/06/26 07:25:13;;;;;;;0.70;0.43;;;;;;;;;;5049454;28;20120;-89
2023/06/26 07:27:39;;;;;;;0.28;0.28;;;;;;;;;;5032349;28;20090;-89
2023/06/26 07:30:05;;;;;;;8.15;0.55;;;;;;;;;;5028218;28;20033;-89
2023/06/26 07:32:32;;;;;;;0.77;0.50;;;;;;;;;;5029261;28;20523;-89
2023/06/26 07:34:58;;;;;;;0.40;0.32;;;;;;;;;;5030032;28;20387;-89
2023/06/26 07:37:24;;;;;;;0.28;0.25;;;;;;;;;;5029190;28;20133;-89
2023/06/26 07:39:50;;;;;;;0.40;0.40;;;;;;;;;;5029620;28;20443;-89
2023/06/26 07:42:16;;;;;;;1.00;0.68;;;;;;;;;;5028816;28;20061;-89
2023/06/26 07:44:43;;;;;;;0.40;0.40;;;;;;;;;;5029159;28;20025;-89
2023/06/26 07:47:09;;;;;;;0.77;0.40;;;;;;;;;;5038646;27;20089;-89
2023/06/26 07:49:35;;;;;;;0.45;0.45;;;;;;;;;;5047961;28;20104;-89
2023/06/26 07:52:01;;;;;;;0.60;0.60;;;;;;;;;;5047910;28;20055;-89
2023/06/26 07:54:27;;;;;;;1.45;0.70;;;;;;;;;;5049183;28;20033;-89
2023/06/26 07:57:00;;;;;;;1.55;0.60;;;;;;;;;;5048414;28;20479;-89
2023/06/26 07:59:27;;;;;;;0.38;0.38;;;;;;;;;;5049013;28;20101;-91
2023/06/26 08:01:53;;;;;;;0.52;0.47;;;;;;;;;;5049157;28;20033;-89
2023/06/26 08:04:20;;;;;;;0.30;0.30;;;;;;;;;;5048863;28;20027;-90
2023/06/26 08:06:48;;;;;;;1.02;0.85;;;;;;;;;;5049107;28;20021;-90
2023/06/26 08:09:14;;;;;;;1.35;1.05;;;;;;;;;;5048926;28;20036;-90
2023/06/26 08:11:40;;;;;;;0.50;0.50;;;;;;;;;;5050624;28;20100;-89
2023/06/26 08:14:06;;;;;;;1.33;1.08;;;;;;;;;;5052333;28;20514;-89
2023/06/26 08:16:32;;;;;;;0.28;0.28;;;;;;;;;;5052246;28;20025;-90
2023/06/26 08:18:58;;;;;;;1.13;0.70;;;;;;;;;;5051205;28;20060;-90
2023/06/26 08:21:24;;;;;;;3.45;1.20;;;;;;;;;;5052122;28;20074;-90
2023/06/26 08:23:50;;;;;;;1.10;0.95;;;;;;;;;;5032711;28;20038;-90
2023/06/26 08:26:16;;;;;;;0.22;0.22;;;;;;;;;;5031722;28;20026;-90
2023/06/26 08:28:42;;;;;;;0.50;0.50;;;;;;;;;;5032181;28;20029;-89
2023/06/26 08:31:08;;;;;;;0.20;0.20;;;;;;;;;;5030694;28;20566;-90
2023/06/26 08:33:34;;;;;;;5.32;0.73;;;;;;;;;;5032184;28;20124;-89
2023/06/26 08:36:00;;;;;;;0.32;0.32;;;;;;;;;;5032185;28;20100;-90
2023/06/26 08:38:26;;;;;;;0.40;0.40;;;;;;;;;;5030704;28;20044;-89
2023/06/26 08:40:52;;;;;;;0.17;0.17;;;;;;;;;;5031523;28;20029;-90
2023/06/26 08:43:19;;;;;;;0.68;0.68;;;;;;;;;;5032285;28;20025;-90
2023/06/26 08:45:46;;;;;;;0.30;0.30;;;;;;;;;;5039964;28;20081;-89
2023/06/26 08:48:12;;;;;;;0.30;0.30;;;;;;;;;;5050902;27;20032;-89
2023/06/26 08:50:39;;;;;;;1.23;0.45;;;;;;;;;;5051387;27;20027;-90
2023/06/26 08:53:12;;;;;;;0.43;0.43;;;;;;;;;;5045764;28;20158;-90
2023/06/26 08:55:40;;;;;;;0.25;0.25;;;;;;;;;;5030179;28;20108;-89
2023/06/26 08:58:06;;;;;;;0.03;0.03;;;;;;;;;;5030252;28;20031;-86
2023/06/26 09:00:32;;;;;;;0.65;0.45;;;;;;;;;;5050894;28;20033;-87
2023/06/26 09:02:59;;;;;;;0.22;0.22;;;;;;;;;;5049416;27;20040;-86
2023/06/26 09:05:27;;;;;;;0.50;0.50;;;;;;;;;;5136382;27;20072;-88
2023/06/26 09:07:55;;;;;;;0.35;0.35;;;;;;;;;;5105637;27;20055;-89
2023/06/26 09:10:21;;;;;;;0.35;0.32;;;;;;;;;;5030294;28;20064;-88
2023/06/26 09:12:48;;;;;;;0.63;0.63;;;;;;;;;;5031368;28;20447;-89
2023/06/26 09:15:20;;;;;;;0.63;0.32;;;;;;;;;;5044863;28;20032;-88
2023/06/26 09:17:46;;;;;;;0.30;0.25;;;;;;;;;;5049691;28;20033;-89
2023/06/26 09:20:14;;;;;;;0.47;0.47;;;;;;;;;;5049955;28;20513;-88
2023/06/26 09:22:41;;;;;;;1.45;0.80;;;;;;;;;;5049375;28;20494;-88
2023/06/26 09:25:08;;;;;;;0.50;0.40;;;;;;;;;;5049955;28;20067;-89
2023/06/26 09:27:34;;;;;;;0.30;0.30;;;;;;;;;;5040026;28;20173;-88
2023/06/26 09:30:00;;;;;;;1.55;0.57;;;;;;;;;;5031428;28;20078;-88
2023/06/26 09:32:27;;;;;;;0.45;0.45;;;;;;;;;;5030973;28;20472;-88
2023/06/26 09:34:55;;;;;;;0.95;0.50;;;;;;;;;;5039084;28;20035;-88
2023/06/26 09:37:22;;;;;;;1.27;0.85;;;;;;;;;;5050645;28;20021;-85
2023/06/26 09:39:49;;;;;;;0.43;0.40;;;;;;;;;;5049945;28;20127;-85
2023/06/26 09:42:16;;;;;;;1.92;1.02;;;;;;;;;;5050717;28;20026;-87
2023/06/26 09:44:45;;;;;;;0.40;0.30;;;;;;;;;;5050237;28;20053;-87
2023/06/26 09:47:12;;;;;;;0.40;0.40;;;;;;;;;;5050467;27;20036;-87
2023/06/26 09:49:42;;;;;;;0.95;0.95;;;;;;;;;;5050579;28;20103;-87
2023/06/26 09:52:08;;;;;;;0.30;0.30;;;;;;;;;;5050196;28;20025;-86
2023/06/26 09:54:35;;;;;;;0.80;0.40;;;;;;;;;;5050271;28;20052;-87
2023/06/26 09:57:08;;;;;;;0.45;0.45;;;;;;;;;;5049881;28;20030;-87
2023/06/26 09:59:34;;;;;;;0.93;0.82;;;;;;;;;;5050405;28;20036;-86
2023/06/26 10:02:00;;;;;;;0.40;0.40;;;;;;;;;;5050034;28;20029;-87
2023/06/26 10:04:27;;;;;;;2.05;0.50;;;;;;;;;;5050239;28;20104;-87
2023/06/26 10:06:54;;;;;;;3.78;0.52;;;;;;;;;;5049922;28;20111;-87
2023/06/26 10:09:22;;;;;;;0.40;0.40;;;;;;;;;;5049691;28;20044;-90
2023/06/26 10:11:59;;;;;;;0.50;0.50;;;;;;;;;;5049692;28;20037;-86
2023/06/26 10:14:32;;;;;;;0.20;0.20;;;;;;;;;;5050587;28;20033;-87
2023/06/26 10:16:58;;;;;;;0.45;0.38;;;;;;;;;;5050602;28;20029;-87
2023/06/26 10:19:26;;;;;;;0.80;0.60;;;;;;;;;;5049739;28;20044;-87
2023/06/26 10:21:55;;;;;;;0.52;0.52;;;;;;;;;;5045705;28;20017;-87
2023/06/26 10:24:22;;;;;;;0.40;0.40;;;;;;;;;;5036929;28;20075;-88
2023/06/26 10:26:50;;;;;;;0.75;0.65;;;;;;;;;;5034275;28;20041;-86
2023/06/26 10:29:17;;;;;;;0.40;0.40;;;;;;;;;;5034591;28;20550;-87
2023/06/26 10:31:45;;;;;;;1.38;1.05;;;;;;;;;;5035126;28;20043;-87
2023/06/26 10:34:11;;;;;;;0.82;0.35;;;;;;;;;;5034152;28;20029;-87
2023/06/26 10:36:37;;;;;;;0.60;0.40;;;;;;;;;;5034674;28;20056;-87
2023/06/26 10:39:05;;;;;;;0.95;0.60;;;;;;;;;;5035462;28;20075;-87
2023/06/26 10:41:36;;;;;;;0.30;0.30;;;;;;;;;;5039594;28;20029;-87
2023/06/26 10:44:02;;;;;;;0.20;0.20;;;;;;;;;;5041152;28;20029;-87
2023/06/26 10:46:29;;;;;;;1.95;1.23;;;;;;;;;;5040703;28;20391;-88
2023/06/26 10:48:59;;;;;;;0.32;0.32;;;;;;;;;;5042593;28;20089;-88
2023/06/26 10:51:26;;;;;;;0.85;0.57;;;;;;;;;;5048579;28;20550;-88
2023/06/26 10:53:56;;;;;;;0.80;0.65;;;;;;;;;;5048843;28;20048;-89
2023/06/26 10:56:22;;;;;;;0.75;0.73;;;;;;;;;;5047475;28;20028;-88
2023/06/26 10:58:49;;;;;;;0.85;0.73;;;;;;;;;;5063685;27;20033;-88
2023/06/26 11:01:20;;;;;;;0.70;0.70;;;;;;;;;;5028477;28;20071;-88
2023/06/26 11:03:52;;;;;;;0.38;0.35;;;;;;;;;;5044852;28;20495;-85
2023/06/26 11:06:21;;;;;;;0.52;0.52;;;;;;;;;;5047758;28;20108;-86
2023/06/26 11:08:54;;;;;;;1.08;0.57;;;;;;;;;;5049515;28;20036;-91
2023/06/26 11:11:20;;;;;;;0.65;0.60;;;;;;;;;;5049095;28;20017;-91
2023/06/26 11:13:47;;;;;;;0.55;0.55;;;;;;;;;;5048915;28;20033;-95
2023/06/26 11:16:14;;;;;;;0.50;0.50;;;;;;;;;;5049300;28;20558;-90
2023/06/26 11:18:40;;;;;;;1.25;0.82;;;;;;;;;;5049052;28;20041;-87
2023/06/26 11:21:06;;;;;;;0.10;0.10;;;;;;;;;;5049506;28;20308;-83
2023/06/26 11:23:33;;;;;;;0.15;0.15;;;;;;;;;;5049151;28;20039;-83
2023/06/26 11:26:13;;;;;;;0.85;0.47;;;;;;;;;;5048936;28;20378;-82
2023/06/26 11:28:39;;;;;;;0.30;0.30;;;;;;;;;;5049220;28;20121;-83
2023/06/26 11:31:05;;;;;;;0.38;0.30;;;;;;;;;;5049059;28;20123;-83
2023/06/26 11:33:31;;;;;;;1.20;0.77;;;;;;;;;;5048776;28;20070;-83
2023/06/26 11:36:08;;;;;;;0.52;0.52;;;;;;;;;;5048373;28;20021;-83
2023/06/26 11:38:38;;;;;;;0.50;0.50;;;;;;;;;;5048890;28;20033;-83
2023/06/26 11:41:08;;;;;;;0.60;0.52;;;;;;;;;;5048853;28;20112;-83
2023/06/26 11:43:34;;;;;;;1.10;0.80;;;;;;;;;;5048766;28;20109;-83
2023/06/26 11:46:00;;;;;;;0.85;0.30;;;;;;;;;;5050190;27;20066;-83
2023/06/26 11:48:26;;;;;;;0.40;0.40;;;;;;;;;;5051775;28;20025;-83
2023/06/26 11:50:52;;;;;;;0.55;0.52;;;;;;;;;;5052651;28;20029;-83
2023/06/26 11:53:18;;;;;;;1.60;0.57;;;;;;;;;;5052268;28;20025;-83
2023/06/26 11:55:44;;;;;;;0.55;0.52;;;;;;;;;;5052219;28;20611;-83
2023/06/26 11:58:10;;;;;;;0.30;0.30;;;;;;;;;;5052741;28;20096;-83
2023/06/26 12:00:41;;;;;;;1.15;0.40;;;;;;;;;;5052138;28;20029;-83
2023/06/26 12:03:07;;;;;;;0.75;0.75;;;;;;;;;;5051860;28;20063;-82
2023/06/26 12:05:33;;;;;;;1.23;0.75;;;;;;;;;;5052175;28;20025;-83
2023/06/26 12:07:59;;;;;;;0.57;0.47;;;;;;;;;;5051949;28;20029;-83
2023/06/26 12:10:25;;;;;;;2.72;0.47;;;;;;;;;;5052297;28;20032;-82
2023/06/26 12:12:51;;;;;;;0.75;0.70;;;;;;;;;;5050678;28;20021;-83
2023/06/26 12:15:17;;;;;;;0.30;0.30;;;;;;;;;;5052013;28;20040;-82
2023/06/26 12:17:43;;;;;;;0.52;0.52;;;;;;;;;;5051481;28;20094;-82
2023/06/26 12:20:19;;;;;;;0.63;0.60;;;;;;;;;;5051942;28;20037;-82
2023/06/26 12:22:49;;;;;;;0.88;0.63;;;;;;;;;;5051774;28;20041;-82
2023/06/26 12:25:15;;;;;;;0.90;0.57;;;;;;;;;;5051775;28;20040;-82
2023/06/26 12:27:41;;;;;;;1.77;1.27;;;;;;;;;;5052153;28;20044;-83
2023/06/26 12:30:07;;;;;;;0.90;0.68;;;;;;;;;;5051943;28;20025;-82
2023/06/26 12:32:35;;;;;;;0.40;0.40;;;;;;;;;;5051507;28;20020;-82
2023/06/26 12:35:02;;;;;;;0.20;0.20;;;;;;;;;;5052080;28;20025;-83
2023/06/26 12:37:28;;;;;;;0.25;0.25;;;;;;;;;;5051724;28;20017;-83
2023/06/26 12:39:55;;;;;;;0.93;0.70;;;;;;;;;;5051575;28;20065;-83
2023/06/26 12:42:28;;;;;;;0.40;0.40;;;;;;;;;;5051820;28;20025;-82
2023/06/26 12:44:58;;;;;;;0.25;0.25;;;;;;;;;;5051575;28;20021;-83
2023/06/26 12:47:28;;;;;;;1.17;0.93;;;;;;;;;;5051267;27;20029;-83
2023/06/26 12:49:54;;;;;;;2.38;0.90;;;;;;;;;;5051439;28;20124;-83
2023/06/26 12:52:21;;;;;;;1.55;0.85;;;;;;;;;;5051552;28;20028;-83
2023/06/26 12:54:47;;;;;;;0.20;0.20;;;;;;;;;;5051680;28;20036;-82
2023/06/26 12:57:16;;;;;;;0.73;0.35;;;;;;;;;;5050517;28;20025;-83
2023/06/26 12:59:42;;;;;;;0.55;0.55;;;;;;;;;;5051163;28;20032;-83
2023/06/26 13:02:10;;;;;;;0.85;0.52;;;;;;;;;;5051415;28;20029;-83
2023/06/26 13:04:39;;;;;;;0.35;0.30;;;;;;;;;;5051290;28;20040;-82
2023/06/26 13:07:05;;;;;;;0.60;0.35;;;;;;;;;;5051131;28;20017;-83
2023/06/26 13:09:33;;;;;;;0.20;0.20;;;;;;;;;;5051211;28;20021;-83
2023/06/26 13:11:59;;;;;;;0.20;0.20;;;;;;;;;;5051245;28;20443;-83
2023/06/26 13:14:25;;;;;;;0.05;0.05;;;;;;;;;;5050628;28;20021;-83
2023/06/26 13:16:51;;;;;;;1.02;0.30;;;;;;;;;;5051574;28;20029;-83
2023/06/26 13:19:17;;;;;;;0.57;0.57;;;;;;;;;;5050984;28;20037;-83
2023/06/26 13:21:43;;;;;;;0.20;0.20;;;;;;;;;;5051005;28;20440;-83
2023/06/26 13:24:10;;;;;;;0.50;0.50;;;;;;;;;;5051219;28;20048;-83
2023/06/26 13:26:36;;;;;;;0.30;0.30;;;;;;;;;;5050859;28;20082;-83
2023/06/26 13:29:02;;;;;;;0.77;0.77;;;;;;;;;;5050762;28;20029;-83
2023/06/26 13:31:28;;;;;;;0.40;0.40;;;;;;;;;;5051479;28;20047;-83
2023/06/26 13:33:54;;;;;;;0.93;0.65;;;;;;;;;;5050856;28;20029;-83
2023/06/26 13:36:21;;;;;;;0.30;0.30;;;;;;;;;;5050704;28;20051;-83
2023/06/26 13:38:50;;;;;;;0.38;0.38;;;;;;;;;;5050609;28;20510;-83
2023/06/26 13:41:16;;;;;;;0.20;0.20;;;;;;;;;;5050730;28;20525;-83
2023/06/26 13:43:42;;;;;;;2.55;0.65;;;;;;;;;;5049105;28;20028;-82
2023/06/26 13:46:08;;;;;;;1.85;0.98;;;;;;;;;;5051063;27;20053;-83
2023/06/26 13:48:34;;;;;;;0.70;0.68;;;;;;;;;;5050652;28;20027;-83
2023/06/26 13:51:00;;;;;;;0.43;0.43;;;;;;;;;;5049156;28;20550;-83
2023/06/26 13:53:26;;;;;;;0.47;0.47;;;;;;;;;;5050470;28;20559;-83
2023/06/26 13:55:52;;;;;;;0.65;0.50;;;;;;;;;;5050598;28;20029;-83
2023/06/26 13:58:22;;;;;;;0.85;0.60;;;;;;;;;;5050131;28;20036;-83
2023/06/26 14:00:48;;;;;;;0.52;0.52;;;;;;;;;;5050421;28;20035;-83
2023/06/26 14:03:14;;;;;;;0.52;0.52;;;;;;;;;;5050285;28;20035;-82
2023/06/26 14:05:40;;;;;;;0.47;0.47;;;;;;;;;;5050244;28;20021;-83
2023/06/26 14:08:07;;;;;;;1.15;0.75;;;;;;;;;;5050297;28;20033;-83
2023/06/26 14:10:33;;;;;;;0.95;0.60;;;;;;;;;;5050276;28;20455;-82
2023/06/26 14:13:00;;;;;;;0.30;0.30;;;;;;;;;;5049965;28;20478;-83
2023/06/26 14:15:26;;;;;;;0.93;0.57;;;;;;;;;;5050050;28;20116;-82
2023/06/26 14:17:52;;;;;;;0.50;0.50;;;;;;;;;;5049930;28;20025;-83
2023/06/26 14:20:20;;;;;;;0.30;0.30;;;;;;;;;;5050389;27;20542;-82
2023/06/26 14:22:46;;;;;;;1.23;0.57;;;;;;;;;;5049858;28;20024;-83
2023/06/26 14:25:12;;;;;;;0.47;0.47;;;;;;;;;;5050169;28;20033;-83
2023/06/26 14:27:38;;;;;;;0.50;0.45;;;;;;;;;;5049744;28;20041;-82
2023/06/26 14:30:05;;;;;;;0.30;0.30;;;;;;;;;;5050402;28;20044;-83
2023/06/26 14:32:31;;;;;;;0.93;0.52;;;;;;;;;;5049985;28;20017;-83
2023/06/26 14:34:57;;;;;;;0.52;0.45;;;;;;;;;;5049865;28;20033;-85
2023/06/26 14:37:24;;;;;;;0.20;0.20;;;;;;;;;;5050484;28;20025;-83
2023/06/26 14:39:50;;;;;;;0.30;0.30;;;;;;;;;;5049846;28;20094;-83